sensor_id;sensor_type;location;lat;lon;timestamp;P1;durP1;ratioP1;P2;durP2;ratioP2
21513;SDS011;10918;48.102;11.636;2023-04-03T00:02:10;7.95;;;6.40;;
21513;SDS011;10918;48.102;11.636;2023-04-03T00:04:36;10.73;;;6.50;;
21513;SDS011;10918;48.102;11.636;2023-04-03T00:07:02;7.80;;;6.20;;
21513;SDS011;10918;48.102;11.636;2023-04-03T00:09:28;8.13;;;6.47;;
21513;SDS011;10918;48.102;11.636;2023-04-03T00:11:54;12.02;;;6.95;;
21513;SDS011;10918;48.102;11.636;2023-04-03T00:14:20;8.07;;;6.57;;
21513;SDS011;10918;48.102;11.636;2023-04-03T00:16:46;9.45;;;6.30;;
21513;SDS011;10918;48.102;11.636;2023-04-03T00:19:12;11.02;;;6.47;;
21513;SDS011;10918;48.102;11.636;2023-04-03T00:21:38;6.82;;;5.82;;
21513;SDS011;10918;48.102;11.636;2023-04-03T00:24:05;8.55;;;6.00;;
21513;SDS011;10918;48.102;11.636;2023-04-03T00:26:31;7.47;;;6.63;;
21513;SDS011;10918;48.102;11.636;2023-04-03T00:28:57;7.63;;;6.00;;
21513;SDS011;10918;48.102;11.636;2023-04-03T00:31:26;8.20;;;6.57;;
21513;SDS011;10918;48.102;11.636;2023-04-03T00:33:52;7.03;;;6.32;;
21513;SDS011;10918;48.102;11.636;2023-04-03T00:36:18;8.25;;;6.63;;
21513;SDS011;10918;48.102;11.636;2023-04-03T00:38:44;9.30;;;6.45;;
21513;SDS011;10918;48.102;11.636;2023-04-03T00:41:10;5.88;;;5.28;;
21513;SDS011;10918;48.102;11.636;2023-04-03T00:43:36;11.15;;;6.68;;
21513;SDS011;10918;48.102;11.636;2023-04-03T00:46:02;7.95;;;6.07;;
21513;SDS011;10918;48.102;11.636;2023-04-03T00:48:32;7.00;;;6.03;;
21513;SDS011;10918;48.102;11.636;2023-04-03T00:51:00;6.80;;;5.97;;
21513;SDS011;10918;48.102;11.636;2023-04-03T00:53:29;8.55;;;6.38;;
21513;SDS011;10918;48.102;11.636;2023-04-03T00:55:56;7.90;;;6.55;;
21513;SDS011;10918;48.102;11.636;2023-04-03T00:58:25;8.80;;;6.15;;
21513;SDS011;10918;48.102;11.636;2023-04-03T01:00:52;8.27;;;6.78;;
21513;SDS011;10918;48.102;11.636;2023-04-03T01:03:22;7.95;;;6.25;;
21513;SDS011;10918;48.102;11.636;2023-04-03T01:05:49;7.97;;;6.85;;
21513;SDS011;10918;48.102;11.636;2023-04-03T01:08:15;8.30;;;5.90;;
21513;SDS011;10918;48.102;11.636;2023-04-03T01:10:41;10.20;;;6.78;;
21513;SDS011;10918;48.102;11.636;2023-04-03T01:16:09;6.80;;;5.82;;
21513;SDS011;10918;48.102;11.636;2023-04-03T01:18:37;8.38;;;6.32;;
21513;SDS011;10918;48.102;11.636;2023-04-03T01:26:20;7.22;;;6.03;;
21513;SDS011;10918;48.102;11.636;2023-04-03T01:28:47;8.35;;;6.00;;
21513;SDS011;10918;48.102;11.636;2023-04-03T01:33:42;7.35;;;6.05;;
21513;SDS011;10918;48.102;11.636;2023-04-03T01:36:08;7.05;;;6.20;;
21513;SDS011;10918;48.102;11.636;2023-04-03T01:38:34;9.40;;;6.63;;
21513;SDS011;10918;48.102;11.636;2023-04-03T01:41:01;7.20;;;5.78;;
21513;SDS011;10918;48.102;11.636;2023-04-03T01:43:27;7.50;;;6.32;;
21513;SDS011;10918;48.102;11.636;2023-04-03T01:45:53;6.97;;;5.90;;
21513;SDS011;10918;48.102;11.636;2023-04-03T01:48:19;8.30;;;6.20;;
21513;SDS011;10918;48.102;11.636;2023-04-03T01:50:46;7.75;;;5.63;;
21513;SDS011;10918;48.102;11.636;2023-04-03T01:53:12;7.75;;;5.97;;
21513;SDS011;10918;48.102;11.636;2023-04-03T01:55:38;6.90;;;6.20;;
21513;SDS011;10918;48.102;11.636;2023-04-03T01:58:04;9.10;;;6.18;;
21513;SDS011;10918;48.102;11.636;2023-04-03T02:00:30;9.70;;;5.78;;
21513;SDS011;10918;48.102;11.636;2023-04-03T02:02:56;8.82;;;6.30;;
21513;SDS011;10918;48.102;11.636;2023-04-03T02:05:22;9.18;;;6.22;;
21513;SDS011;10918;48.102;11.636;2023-04-03T02:07:48;7.20;;;6.13;;
21513;SDS011;10918;48.102;11.636;2023-04-03T02:10:15;8.05;;;6.63;;
21513;SDS011;10918;48.102;11.636;2023-04-03T02:12:40;8.75;;;6.25;;
21513;SDS011;10918;48.102;11.636;2023-04-03T02:15:07;8.15;;;5.78;;
21513;SDS011;10918;48.102;11.636;2023-04-03T02:17:33;8.27;;;6.03;;
21513;SDS011;10918;48.102;11.636;2023-04-03T02:20:00;9.02;;;5.82;;
21513;SDS011;10918;48.102;11.636;2023-04-03T02:22:26;6.32;;;5.70;;
21513;SDS011;10918;48.102;11.636;2023-04-03T02:24:52;8.20;;;5.88;;
21513;SDS011;10918;48.102;11.636;2023-04-03T02:27:18;6.97;;;5.88;;
21513;SDS011;10918;48.102;11.636;2023-04-03T02:29:44;7.25;;;5.78;;
21513;SDS011;10918;48.102;11.636;2023-04-03T02:32:10;6.40;;;5.63;;
21513;SDS011;10918;48.102;11.636;2023-04-03T02:34:36;6.50;;;5.63;;
21513;SDS011;10918;48.102;11.636;2023-04-03T02:37:02;7.75;;;5.70;;
21513;SDS011;10918;48.102;11.636;2023-04-03T02:39:28;8.45;;;6.18;;
21513;SDS011;10918;48.102;11.636;2023-04-03T02:41:54;7.78;;;6.28;;
21513;SDS011;10918;48.102;11.636;2023-04-03T02:44:20;7.68;;;6.05;;
21513;SDS011;10918;48.102;11.636;2023-04-03T02:46:46;6.95;;;5.78;;
21513;SDS011;10918;48.102;11.636;2023-04-03T02:49:12;7.28;;;5.88;;
21513;SDS011;10918;48.102;11.636;2023-04-03T02:51:38;6.97;;;5.72;;
21513;SDS011;10918;48.102;11.636;2023-04-03T02:54:04;8.90;;;5.75;;
21513;SDS011;10918;48.102;11.636;2023-04-03T02:56:30;8.68;;;6.25;;
21513;SDS011;10918;48.102;11.636;2023-04-03T02:58:56;7.13;;;5.55;;
21513;SDS011;10918;48.102;11.636;2023-04-03T03:01:22;6.57;;;5.07;;
21513;SDS011;10918;48.102;11.636;2023-04-03T03:03:48;8.10;;;5.20;;
21513;SDS011;10918;48.102;11.636;2023-04-03T03:06:15;6.55;;;4.97;;
21513;SDS011;10918;48.102;11.636;2023-04-03T03:08:41;6.80;;;4.97;;
21513;SDS011;10918;48.102;11.636;2023-04-03T03:11:08;6.35;;;4.68;;
21513;SDS011;10918;48.102;11.636;2023-04-03T03:13:34;5.85;;;4.60;;
21513;SDS011;10918;48.102;11.636;2023-04-03T03:16:00;5.53;;;4.47;;
21513;SDS011;10918;48.102;11.636;2023-04-03T03:18:27;6.97;;;5.00;;
21513;SDS011;10918;48.102;11.636;2023-04-03T03:20:53;6.53;;;4.32;;
21513;SDS011;10918;48.102;11.636;2023-04-03T03:23:20;5.25;;;4.75;;
21513;SDS011;10918;48.102;11.636;2023-04-03T03:25:46;6.38;;;4.72;;
21513;SDS011;10918;48.102;11.636;2023-04-03T03:28:12;4.80;;;4.13;;
21513;SDS011;10918;48.102;11.636;2023-04-03T03:30:38;5.43;;;4.28;;
21513;SDS011;10918;48.102;11.636;2023-04-03T03:33:04;5.38;;;4.15;;
21513;SDS011;10918;48.102;11.636;2023-04-03T03:35:30;4.93;;;4.40;;
21513;SDS011;10918;48.102;11.636;2023-04-03T03:37:56;4.57;;;4.05;;
21513;SDS011;10918;48.102;11.636;2023-04-03T03:40:22;5.72;;;4.45;;
21513;SDS011;10918;48.102;11.636;2023-04-03T03:42:48;6.72;;;4.45;;
21513;SDS011;10918;48.102;11.636;2023-04-03T03:45:14;4.90;;;3.88;;
21513;SDS011;10918;48.102;11.636;2023-04-03T03:47:41;4.57;;;3.65;;
21513;SDS011;10918;48.102;11.636;2023-04-03T03:50:07;4.60;;;3.53;;
21513;SDS011;10918;48.102;11.636;2023-04-03T03:52:33;5.20;;;3.63;;
21513;SDS011;10918;48.102;11.636;2023-04-03T03:54:59;5.13;;;3.75;;
21513;SDS011;10918;48.102;11.636;2023-04-03T03:57:25;4.90;;;3.70;;
21513;SDS011;10918;48.102;11.636;2023-04-03T03:59:53;7.05;;;3.42;;
21513;SDS011;10918;48.102;11.636;2023-04-03T04:02:20;4.47;;;3.80;;
21513;SDS011;10918;48.102;11.636;2023-04-03T04:04:46;5.22;;;3.83;;
21513;SDS011;10918;48.102;11.636;2023-04-03T04:07:12;5.75;;;3.83;;
21513;SDS011;10918;48.102;11.636;2023-04-03T04:09:38;4.78;;;2.97;;
21513;SDS011;10918;48.102;11.636;2023-04-03T04:12:04;4.50;;;3.60;;
21513;SDS011;10918;48.102;11.636;2023-04-03T04:14:30;4.45;;;3.55;;
21513;SDS011;10918;48.102;11.636;2023-04-03T04:16:56;5.53;;;3.58;;
21513;SDS011;10918;48.102;11.636;2023-04-03T04:19:22;3.58;;;3.28;;
21513;SDS011;10918;48.102;11.636;2023-04-03T04:21:49;4.10;;;3.30;;
21513;SDS011;10918;48.102;11.636;2023-04-03T04:24:15;4.63;;;3.45;;
21513;SDS011;10918;48.102;11.636;2023-04-03T04:26:41;5.28;;;3.42;;
21513;SDS011;10918;48.102;11.636;2023-04-03T04:29:08;4.60;;;3.47;;
21513;SDS011;10918;48.102;11.636;2023-04-03T04:31:35;4.65;;;3.35;;
21513;SDS011;10918;48.102;11.636;2023-04-03T04:34:01;4.47;;;3.85;;
21513;SDS011;10918;48.102;11.636;2023-04-03T04:36:27;4.07;;;3.45;;
21513;SDS011;10918;48.102;11.636;2023-04-03T04:38:53;5.25;;;3.63;;
21513;SDS011;10918;48.102;11.636;2023-04-03T04:41:20;6.32;;;4.03;;
21513;SDS011;10918;48.102;11.636;2023-04-03T04:43:47;3.55;;;3.25;;
21513;SDS011;10918;48.102;11.636;2023-04-03T04:46:13;5.07;;;3.75;;
21513;SDS011;10918;48.102;11.636;2023-04-03T04:48:39;3.92;;;3.00;;
21513;SDS011;10918;48.102;11.636;2023-04-03T04:51:05;4.15;;;3.53;;
21513;SDS011;10918;48.102;11.636;2023-04-03T04:53:32;3.88;;;3.28;;
21513;SDS011;10918;48.102;11.636;2023-04-03T04:55:58;5.22;;;3.60;;
21513;SDS011;10918;48.102;11.636;2023-04-03T04:58:24;6.20;;;3.47;;
21513;SDS011;10918;48.102;11.636;2023-04-03T05:00:57;4.60;;;3.80;;
21513;SDS011;10918;48.102;11.636;2023-04-03T05:03:24;5.53;;;3.63;;
21513;SDS011;10918;48.102;11.636;2023-04-03T05:05:49;5.28;;;3.60;;
21513;SDS011;10918;48.102;11.636;2023-04-03T05:08:15;4.90;;;3.78;;
21513;SDS011;10918;48.102;11.636;2023-04-03T05:10:41;5.85;;;3.83;;
21513;SDS011;10918;48.102;11.636;2023-04-03T05:13:07;5.97;;;3.55;;
21513;SDS011;10918;48.102;11.636;2023-04-03T05:15:34;4.20;;;3.67;;
21513;SDS011;10918;48.102;11.636;2023-04-03T05:18:00;4.80;;;3.63;;
21513;SDS011;10918;48.102;11.636;2023-04-03T05:20:26;4.28;;;3.88;;
21513;SDS011;10918;48.102;11.636;2023-04-03T05:22:52;5.80;;;3.58;;
21513;SDS011;10918;48.102;11.636;2023-04-03T05:25:18;4.85;;;3.95;;
21513;SDS011;10918;48.102;11.636;2023-04-03T05:27:44;5.30;;;3.50;;
21513;SDS011;10918;48.102;11.636;2023-04-03T05:30:10;4.40;;;3.80;;
21513;SDS011;10918;48.102;11.636;2023-04-03T05:32:36;3.50;;;3.10;;
21513;SDS011;10918;48.102;11.636;2023-04-03T05:35:03;5.07;;;3.67;;
21513;SDS011;10918;48.102;11.636;2023-04-03T05:37:29;5.60;;;3.88;;
21513;SDS011;10918;48.102;11.636;2023-04-03T05:39:55;3.90;;;3.42;;
21513;SDS011;10918;48.102;11.636;2023-04-03T05:42:21;4.82;;;3.60;;
21513;SDS011;10918;48.102;11.636;2023-04-03T05:44:47;3.78;;;3.28;;
21513;SDS011;10918;48.102;11.636;2023-04-03T05:47:15;3.50;;;3.15;;
21513;SDS011;10918;48.102;11.636;2023-04-03T05:49:41;4.30;;;3.30;;
21513;SDS011;10918;48.102;11.636;2023-04-03T05:52:13;5.32;;;3.55;;
21513;SDS011;10918;48.102;11.636;2023-04-03T05:54:43;4.00;;;3.28;;
21513;SDS011;10918;48.102;11.636;2023-04-03T05:57:12;4.68;;;3.83;;
21513;SDS011;10918;48.102;11.636;2023-04-03T05:59:38;3.55;;;3.17;;
21513;SDS011;10918;48.102;11.636;2023-04-03T06:02:04;5.30;;;3.45;;
21513;SDS011;10918;48.102;11.636;2023-04-03T06:04:31;5.53;;;3.55;;
21513;SDS011;10918;48.102;11.636;2023-04-03T06:06:57;5.50;;;3.45;;
21513;SDS011;10918;48.102;11.636;2023-04-03T06:09:24;4.60;;;3.42;;
21513;SDS011;10918;48.102;11.636;2023-04-03T06:11:51;4.55;;;3.30;;
21513;SDS011;10918;48.102;11.636;2023-04-03T06:14:17;4.07;;;3.13;;
21513;SDS011;10918;48.102;11.636;2023-04-03T06:16:43;3.42;;;2.78;;
21513;SDS011;10918;48.102;11.636;2023-04-03T06:19:10;3.53;;;3.15;;
21513;SDS011;10918;48.102;11.636;2023-04-03T06:21:36;2.97;;;2.42;;
21513;SDS011;10918;48.102;11.636;2023-04-03T06:24:03;3.33;;;3.03;;
21513;SDS011;10918;48.102;11.636;2023-04-03T06:26:29;3.80;;;3.10;;
21513;SDS011;10918;48.102;11.636;2023-04-03T06:28:56;3.42;;;3.08;;
21513;SDS011;10918;48.102;11.636;2023-04-03T06:31:22;4.60;;;3.50;;
21513;SDS011;10918;48.102;11.636;2023-04-03T06:33:48;5.57;;;3.35;;
21513;SDS011;10918;48.102;11.636;2023-04-03T06:36:14;5.20;;;2.85;;
21513;SDS011;10918;48.102;11.636;2023-04-03T06:38:44;4.55;;;3.20;;
21513;SDS011;10918;48.102;11.636;2023-04-03T06:41:10;4.80;;;3.33;;
21513;SDS011;10918;48.102;11.636;2023-04-03T06:43:36;5.57;;;4.13;;
21513;SDS011;10918;48.102;11.636;2023-04-03T06:46:03;4.80;;;3.45;;
21513;SDS011;10918;48.102;11.636;2023-04-03T06:48:29;4.20;;;3.35;;
21513;SDS011;10918;48.102;11.636;2023-04-03T06:50:55;6.15;;;3.17;;
21513;SDS011;10918;48.102;11.636;2023-04-03T06:53:21;4.88;;;3.17;;
21513;SDS011;10918;48.102;11.636;2023-04-03T06:55:47;5.35;;;3.28;;
21513;SDS011;10918;48.102;11.636;2023-04-03T06:58:13;3.63;;;3.28;;
21513;SDS011;10918;48.102;11.636;2023-04-03T07:00:40;4.03;;;3.20;;
21513;SDS011;10918;48.102;11.636;2023-04-03T07:03:06;5.88;;;3.70;;
21513;SDS011;10918;48.102;11.636;2023-04-03T07:05:32;4.85;;;3.40;;
21513;SDS011;10918;48.102;11.636;2023-04-03T07:07:58;4.50;;;3.20;;
21513;SDS011;10918;48.102;11.636;2023-04-03T07:10:24;5.20;;;3.55;;
21513;SDS011;10918;48.102;11.636;2023-04-03T07:12:50;4.65;;;3.25;;
21513;SDS011;10918;48.102;11.636;2023-04-03T07:15:17;4.53;;;3.58;;
21513;SDS011;10918;48.102;11.636;2023-04-03T07:17:43;8.38;;;3.88;;
21513;SDS011;10918;48.102;11.636;2023-04-03T07:20:10;5.00;;;3.55;;
21513;SDS011;10918;48.102;11.636;2023-04-03T07:22:36;4.88;;;3.33;;
21513;SDS011;10918;48.102;11.636;2023-04-03T07:25:02;5.25;;;3.63;;
21513;SDS011;10918;48.102;11.636;2023-04-03T07:27:29;6.00;;;3.80;;
21513;SDS011;10918;48.102;11.636;2023-04-03T07:29:55;3.90;;;3.40;;
21513;SDS011;10918;48.102;11.636;2023-04-03T07:32:21;4.40;;;3.25;;
21513;SDS011;10918;48.102;11.636;2023-04-03T07:34:47;5.78;;;3.70;;
21513;SDS011;10918;48.102;11.636;2023-04-03T07:37:13;5.28;;;3.80;;
21513;SDS011;10918;48.102;11.636;2023-04-03T07:39:39;3.75;;;3.30;;
21513;SDS011;10918;48.102;11.636;2023-04-03T07:42:06;5.25;;;3.30;;
21513;SDS011;10918;48.102;11.636;2023-04-03T07:44:33;6.15;;;3.92;;
21513;SDS011;10918;48.102;11.636;2023-04-03T07:46:59;5.55;;;3.90;;
21513;SDS011;10918;48.102;11.636;2023-04-03T07:49:25;5.38;;;3.47;;
21513;SDS011;10918;48.102;11.636;2023-04-03T07:51:52;4.20;;;3.40;;
21513;SDS011;10918;48.102;11.636;2023-04-03T07:54:18;5.05;;;3.13;;
21513;SDS011;10918;48.102;11.636;2023-04-03T07:56:44;8.52;;;3.90;;
21513;SDS011;10918;48.102;11.636;2023-04-03T07:59:10;5.70;;;3.35;;
21513;SDS011;10918;48.102;11.636;2023-04-03T08:01:36;5.25;;;3.33;;
21513;SDS011;10918;48.102;11.636;2023-04-03T08:04:02;5.95;;;3.67;;
21513;SDS011;10918;48.102;11.636;2023-04-03T08:06:28;8.95;;;6.78;;
21513;SDS011;10918;48.102;11.636;2023-04-03T08:08:55;15.20;;;7.53;;
21513;SDS011;10918;48.102;11.636;2023-04-03T08:11:21;5.63;;;3.30;;
21513;SDS011;10918;48.102;11.636;2023-04-03T08:13:48;8.23;;;4.45;;
21513;SDS011;10918;48.102;11.636;2023-04-03T08:16:18;6.07;;;4.55;;
21513;SDS011;10918;48.102;11.636;2023-04-03T08:18:45;5.75;;;4.13;;
21513;SDS011;10918;48.102;11.636;2023-04-03T08:21:11;4.32;;;3.75;;
21513;SDS011;10918;48.102;11.636;2023-04-03T08:23:38;7.10;;;4.40;;
21513;SDS011;10918;48.102;11.636;2023-04-03T08:26:10;6.72;;;3.90;;
21513;SDS011;10918;48.102;11.636;2023-04-03T08:28:36;5.53;;;4.03;;
21513;SDS011;10918;48.102;11.636;2023-04-03T08:31:03;6.20;;;4.30;;
21513;SDS011;10918;48.102;11.636;2023-04-03T08:33:30;7.50;;;5.47;;
21513;SDS011;10918;48.102;11.636;2023-04-03T08:35:57;5.45;;;3.97;;
21513;SDS011;10918;48.102;11.636;2023-04-03T08:38:23;5.80;;;4.03;;
21513;SDS011;10918;48.102;11.636;2023-04-03T08:40:59;5.50;;;4.30;;
21513;SDS011;10918;48.102;11.636;2023-04-03T08:43:41;7.13;;;4.20;;
21513;SDS011;10918;48.102;11.636;2023-04-03T08:46:13;5.93;;;4.20;;
21513;SDS011;10918;48.102;11.636;2023-04-03T08:48:41;4.93;;;4.00;;
21513;SDS011;10918;48.102;11.636;2023-04-03T08:51:15;5.78;;;4.25;;
21513;SDS011;10918;48.102;11.636;2023-04-03T08:53:44;6.55;;;4.32;;
21513;SDS011;10918;48.102;11.636;2023-04-03T08:56:12;5.57;;;4.28;;
21513;SDS011;10918;48.102;11.636;2023-04-03T08:59:14;5.20;;;3.90;;
21513;SDS011;10918;48.102;11.636;2023-04-03T09:01:36;4.47;;;4.07;;
21513;SDS011;10918;48.102;11.636;2023-04-03T09:04:03;4.90;;;4.38;;
21513;SDS011;10918;48.102;11.636;2023-04-03T09:06:34;4.85;;;3.60;;
21513;SDS011;10918;48.102;11.636;2023-04-03T09:16:49;4.05;;;3.60;;
21513;SDS011;10918;48.102;11.636;2023-04-03T09:19:21;5.20;;;4.03;;
21513;SDS011;10918;48.102;11.636;2023-04-03T09:21:49;6.43;;;4.25;;
21513;SDS011;10918;48.102;11.636;2023-04-03T09:24:16;5.68;;;3.70;;
21513;SDS011;10918;48.102;11.636;2023-04-03T09:26:48;6.80;;;4.03;;
21513;SDS011;10918;48.102;11.636;2023-04-03T09:29:17;4.40;;;3.53;;
21513;SDS011;10918;48.102;11.636;2023-04-03T09:31:44;4.20;;;3.65;;
21513;SDS011;10918;48.102;11.636;2023-04-03T09:36:50;10.38;;;3.72;;
21513;SDS011;10918;48.102;11.636;2023-04-03T09:39:21;6.07;;;3.58;;
21513;SDS011;10918;48.102;11.636;2023-04-03T09:41:58;3.88;;;3.47;;
21513;SDS011;10918;48.102;11.636;2023-04-03T09:44:25;4.90;;;3.30;;
21513;SDS011;10918;48.102;11.636;2023-04-03T09:46:52;4.93;;;3.30;;
21513;SDS011;10918;48.102;11.636;2023-04-03T09:49:18;5.65;;;4.60;;
21513;SDS011;10918;48.102;11.636;2023-04-03T09:51:44;5.18;;;3.22;;
21513;SDS011;10918;48.102;11.636;2023-04-03T09:54:23;5.30;;;4.18;;
21513;SDS011;10918;48.102;11.636;2023-04-03T09:56:50;4.95;;;3.92;;
21513;SDS011;10918;48.102;11.636;2023-04-03T09:59:17;4.38;;;3.35;;
21513;SDS011;10918;48.102;11.636;2023-04-03T10:01:44;3.80;;;3.50;;
21513;SDS011;10918;48.102;11.636;2023-04-03T10:04:22;5.75;;;3.47;;
21513;SDS011;10918;48.102;11.636;2023-04-03T10:06:50;5.07;;;2.95;;
21513;SDS011;10918;48.102;11.636;2023-04-03T10:09:29;4.80;;;3.42;;
21513;SDS011;10918;48.102;11.636;2023-04-03T10:14:30;5.00;;;3.33;;
21513;SDS011;10918;48.102;11.636;2023-04-03T10:27:18;4.32;;;3.55;;
21513;SDS011;10918;48.102;11.636;2023-04-03T10:38:15;4.75;;;3.70;;
21513;SDS011;10918;48.102;11.636;2023-04-03T10:40:52;4.43;;;3.45;;
21513;SDS011;10918;48.102;11.636;2023-04-03T10:43:43;3.75;;;2.97;;
21513;SDS011;10918;48.102;11.636;2023-04-03T10:46:09;4.10;;;2.90;;
21513;SDS011;10918;48.102;11.636;2023-04-03T10:53:45;3.60;;;2.72;;
21513;SDS011;10918;48.102;11.636;2023-04-03T10:58:45;4.43;;;3.35;;
21513;SDS011;10918;48.102;11.636;2023-04-03T11:01:21;5.43;;;3.38;;
21513;SDS011;10918;48.102;11.636;2023-04-03T11:03:53;4.60;;;3.38;;
21513;SDS011;10918;48.102;11.636;2023-04-03T11:06:21;3.45;;;2.78;;
21513;SDS011;10918;48.102;11.636;2023-04-03T11:09:00;3.63;;;3.30;;
21513;SDS011;10918;48.102;11.636;2023-04-03T11:11:32;5.22;;;3.10;;
21513;SDS011;10918;48.102;11.636;2023-04-03T11:14:04;3.58;;;2.83;;
21513;SDS011;10918;48.102;11.636;2023-04-03T11:16:33;3.72;;;2.90;;
21513;SDS011;10918;48.102;11.636;2023-04-03T11:21:57;5.45;;;3.35;;
21513;SDS011;10918;48.102;11.636;2023-04-03T11:24:27;3.15;;;2.70;;
21513;SDS011;10918;48.102;11.636;2023-04-03T11:26:56;3.20;;;2.65;;
21513;SDS011;10918;48.102;11.636;2023-04-03T11:29:23;3.03;;;2.60;;
21513;SDS011;10918;48.102;11.636;2023-04-03T11:34:31;4.57;;;2.17;;
21513;SDS011;10918;48.102;11.636;2023-04-03T11:37:01;3.55;;;2.10;;
21513;SDS011;10918;48.102;11.636;2023-04-03T11:39:30;3.90;;;2.95;;
21513;SDS011;10918;48.102;11.636;2023-04-03T11:42:16;2.83;;;2.28;;
21513;SDS011;10918;48.102;11.636;2023-04-03T11:44:43;2.53;;;1.83;;
21513;SDS011;10918;48.102;11.636;2023-04-03T11:47:10;5.70;;;2.53;;
21513;SDS011;10918;48.102;11.636;2023-04-03T12:16:02;5.35;;;2.13;;
21513;SDS011;10918;48.102;11.636;2023-04-03T12:21:07;2.72;;;1.98;;
21513;SDS011;10918;48.102;11.636;2023-04-03T12:23:34;3.00;;;1.98;;
21513;SDS011;10918;48.102;11.636;2023-04-03T12:28:47;1.88;;;1.70;;
21513;SDS011;10918;48.102;11.636;2023-04-03T12:31:13;2.90;;;1.88;;
21513;SDS011;10918;48.102;11.636;2023-04-03T12:36:17;4.65;;;1.88;;
21513;SDS011;10918;48.102;11.636;2023-04-03T12:38:57;2.67;;;1.70;;
21513;SDS011;10918;48.102;11.636;2023-04-03T12:44:06;2.63;;;1.88;;
21513;SDS011;10918;48.102;11.636;2023-04-03T12:46:37;2.55;;;1.77;;
21513;SDS011;10918;48.102;11.636;2023-04-03T12:49:12;3.72;;;2.30;;
21513;SDS011;10918;48.102;11.636;2023-04-03T12:51:41;2.40;;;1.83;;
21513;SDS011;10918;48.102;11.636;2023-04-03T12:57:08;3.25;;;1.92;;
21513;SDS011;10918;48.102;11.636;2023-04-03T12:59:34;3.67;;;2.10;;
21513;SDS011;10918;48.102;11.636;2023-04-03T13:02:01;3.38;;;1.80;;
21513;SDS011;10918;48.102;11.636;2023-04-03T13:04:28;2.53;;;1.77;;
21513;SDS011;10918;48.102;11.636;2023-04-03T13:06:55;3.03;;;1.90;;
21513;SDS011;10918;48.102;11.636;2023-04-03T13:09:25;2.92;;;1.95;;
21513;SDS011;10918;48.102;11.636;2023-04-03T13:11:56;2.88;;;1.70;;
21513;SDS011;10918;48.102;11.636;2023-04-03T13:14:24;3.35;;;1.80;;
21513;SDS011;10918;48.102;11.636;2023-04-03T13:16:57;2.45;;;2.03;;
21513;SDS011;10918;48.102;11.636;2023-04-03T13:19:27;3.63;;;1.90;;
21513;SDS011;10918;48.102;11.636;2023-04-03T13:22:00;4.28;;;1.98;;
21513;SDS011;10918;48.102;11.636;2023-04-03T13:24:28;3.72;;;2.03;;
21513;SDS011;10918;48.102;11.636;2023-04-03T13:26:55;2.58;;;1.55;;
21513;SDS011;10918;48.102;11.636;2023-04-03T13:29:29;4.30;;;2.17;;
21513;SDS011;10918;48.102;11.636;2023-04-03T13:31:56;3.65;;;1.85;;
21513;SDS011;10918;48.102;11.636;2023-04-03T13:34:23;2.38;;;1.40;;
21513;SDS011;10918;48.102;11.636;2023-04-03T13:41:47;2.95;;;1.50;;
21513;SDS011;10918;48.102;11.636;2023-04-03T13:44:17;2.10;;;1.45;;
21513;SDS011;10918;48.102;11.636;2023-04-03T13:46:43;3.00;;;1.75;;
21513;SDS011;10918;48.102;11.636;2023-04-03T13:51:54;1.95;;;1.35;;
21513;SDS011;10918;48.102;11.636;2023-04-03T13:54:24;2.00;;;1.27;;
21513;SDS011;10918;48.102;11.636;2023-04-03T13:56:54;1.92;;;1.50;;
21513;SDS011;10918;48.102;11.636;2023-04-03T13:59:31;1.85;;;1.50;;
21513;SDS011;10918;48.102;11.636;2023-04-03T14:07:02;4.30;;;1.60;;
21513;SDS011;10918;48.102;11.636;2023-04-03T14:09:28;2.45;;;1.65;;
21513;SDS011;10918;48.102;11.636;2023-04-03T14:11:56;3.28;;;1.70;;
21513;SDS011;10918;48.102;11.636;2023-04-03T14:14:24;3.33;;;1.58;;
21513;SDS011;10918;48.102;11.636;2023-04-03T14:16:55;5.25;;;2.95;;
21513;SDS011;10918;48.102;11.636;2023-04-03T14:19:24;4.53;;;1.70;;
21513;SDS011;10918;48.102;11.636;2023-04-03T14:21:51;2.75;;;1.40;;
21513;SDS011;10918;48.102;11.636;2023-04-03T14:24:18;1.40;;;1.30;;
21513;SDS011;10918;48.102;11.636;2023-04-03T14:26:44;2.65;;;1.23;;
21513;SDS011;10918;48.102;11.636;2023-04-03T14:29:11;1.77;;;1.25;;
21513;SDS011;10918;48.102;11.636;2023-04-03T14:31:37;2.28;;;1.15;;
21513;SDS011;10918;48.102;11.636;2023-04-03T14:34:03;2.70;;;1.40;;
21513;SDS011;10918;48.102;11.636;2023-04-03T14:36:30;1.85;;;1.30;;
21513;SDS011;10918;48.102;11.636;2023-04-03T14:38:57;2.70;;;1.58;;
21513;SDS011;10918;48.102;11.636;2023-04-03T14:41:23;2.83;;;1.38;;
21513;SDS011;10918;48.102;11.636;2023-04-03T14:43:50;1.55;;;1.30;;
21513;SDS011;10918;48.102;11.636;2023-04-03T14:46:17;3.08;;;1.30;;
21513;SDS011;10918;48.102;11.636;2023-04-03T14:48:43;5.05;;;1.40;;
21513;SDS011;10918;48.102;11.636;2023-04-03T14:51:13;2.00;;;1.30;;
21513;SDS011;10918;48.102;11.636;2023-04-03T14:53:40;3.63;;;1.50;;
21513;SDS011;10918;48.102;11.636;2023-04-03T14:56:21;2.00;;;1.15;;
21513;SDS011;10918;48.102;11.636;2023-04-03T14:58:48;3.25;;;1.40;;
21513;SDS011;10918;48.102;11.636;2023-04-03T15:01:15;3.53;;;1.40;;
21513;SDS011;10918;48.102;11.636;2023-04-03T15:03:42;2.65;;;1.42;;
21513;SDS011;10918;48.102;11.636;2023-04-03T15:06:12;2.83;;;1.45;;
21513;SDS011;10918;48.102;11.636;2023-04-03T15:08:38;1.27;;;1.15;;
21513;SDS011;10918;48.102;11.636;2023-04-03T15:11:06;2.28;;;1.05;;
21513;SDS011;10918;48.102;11.636;2023-04-03T15:13:32;3.28;;;2.10;;
21513;SDS011;10918;48.102;11.636;2023-04-03T15:15:58;2.08;;;1.40;;
21513;SDS011;10918;48.102;11.636;2023-04-03T15:18:25;1.60;;;1.02;;
21513;SDS011;10918;48.102;11.636;2023-04-03T15:20:52;2.55;;;1.27;;
21513;SDS011;10918;48.102;11.636;2023-04-03T15:23:18;1.58;;;1.05;;
21513;SDS011;10918;48.102;11.636;2023-04-03T15:25:45;3.03;;;1.50;;
21513;SDS011;10918;48.102;11.636;2023-04-03T15:28:19;3.00;;;1.30;;
21513;SDS011;10918;48.102;11.636;2023-04-03T15:30:47;2.47;;;1.05;;
21513;SDS011;10918;48.102;11.636;2023-04-03T15:33:13;2.13;;;1.52;;
21513;SDS011;10918;48.102;11.636;2023-04-03T15:35:40;3.28;;;1.40;;
21513;SDS011;10918;48.102;11.636;2023-04-03T15:38:07;2.20;;;1.48;;
21513;SDS011;10918;48.102;11.636;2023-04-03T15:40:33;2.10;;;1.27;;
21513;SDS011;10918;48.102;11.636;2023-04-03T15:42:59;2.25;;;1.17;;
21513;SDS011;10918;48.102;11.636;2023-04-03T15:45:25;2.63;;;1.33;;
21513;SDS011;10918;48.102;11.636;2023-04-03T15:47:54;2.53;;;1.40;;
21513;SDS011;10918;48.102;11.636;2023-04-03T15:50:20;1.30;;;1.00;;
21513;SDS011;10918;48.102;11.636;2023-04-03T15:52:48;1.80;;;1.42;;
21513;SDS011;10918;48.102;11.636;2023-04-03T15:55:23;1.23;;;1.10;;
21513;SDS011;10918;48.102;11.636;2023-04-03T15:57:49;1.77;;;1.33;;
21513;SDS011;10918;48.102;11.636;2023-04-03T16:00:15;2.22;;;1.05;;
21513;SDS011;10918;48.102;11.636;2023-04-03T16:02:42;2.28;;;1.23;;
21513;SDS011;10918;48.102;11.636;2023-04-03T16:05:09;1.98;;;1.10;;
21513;SDS011;10918;48.102;11.636;2023-04-03T16:07:36;1.27;;;1.00;;
21513;SDS011;10918;48.102;11.636;2023-04-03T16:10:03;2.03;;;1.30;;
21513;SDS011;10918;48.102;11.636;2023-04-03T16:12:29;3.00;;;1.50;;
21513;SDS011;10918;48.102;11.636;2023-04-03T16:14:55;1.80;;;1.20;;
21513;SDS011;10918;48.102;11.636;2023-04-03T16:17:21;2.83;;;1.75;;
21513;SDS011;10918;48.102;11.636;2023-04-03T16:19:47;2.72;;;1.48;;
21513;SDS011;10918;48.102;11.636;2023-04-03T16:22:13;1.83;;;1.13;;
21513;SDS011;10918;48.102;11.636;2023-04-03T16:24:39;4.13;;;1.75;;